createdAt,value
2022-11-10T00:00:58.606Z,10.50
2022-11-10T00:03:28.166Z,10.49
2022-11-10T00:05:55.772Z,10.47
2022-11-10T00:08:22.119Z,10.47
2022-11-10T00:10:57.542Z,10.49
2022-11-10T00:13:29.897Z,10.42
2022-11-10T00:16:18.146Z,10.40
2022-11-10T00:18:44.842Z,10.36
2022-11-10T00:21:12.587Z,10.33
2022-11-10T00:23:39.205Z,10.39
2022-11-10T00:26:12.126Z,10.40
2022-11-10T00:28:38.773Z,10.37
2022-11-10T00:31:07.015Z,10.33
2022-11-10T00:33:37.991Z,10.36
2022-11-10T00:36:05.197Z,10.32
2022-11-10T00:38:31.607Z,10.27
2022-11-10T00:40:59.778Z,10.30
2022-11-10T00:43:27.050Z,10.22
2022-11-10T00:45:53.741Z,10.23
2022-11-10T00:48:20.109Z,10.18
2022-11-10T00:50:46.438Z,10.13
2022-11-10T00:53:12.770Z,10.11
2022-11-10T00:55:40.177Z,10.09
2022-11-10T00:58:06.772Z,10.09
2022-11-10T01:00:33.200Z,10.01
2022-11-10T01:02:59.800Z,9.95
2022-11-10T01:05:26.124Z,9.96
2022-11-10T01:07:52.419Z,9.92
2022-11-10T01:10:18.840Z,9.86
2022-11-10T01:12:45.183Z,9.79
2022-11-10T01:15:11.476Z,9.68
2022-11-10T01:17:37.797Z,9.66
2022-11-10T01:20:04.335Z,9.67
2022-11-10T01:22:30.702Z,9.61
2022-11-10T01:24:57.031Z,9.55
2022-11-10T01:27:23.314Z,9.57
2022-11-10T01:29:49.793Z,9.57
2022-11-10T01:32:16.107Z,9.53
2022-11-10T01:34:42.442Z,9.53
2022-11-10T01:37:08.740Z,9.46
2022-11-10T01:39:35.211Z,9.46
2022-11-10T01:42:01.542Z,9.42
2022-11-10T01:44:28.121Z,9.43
2022-11-10T01:46:54.472Z,9.39
2022-11-10T01:49:25.787Z,9.43
2022-11-10T01:52:00.845Z,9.35
2022-11-10T01:54:36.090Z,9.35
2022-11-10T01:57:07.869Z,9.37
2022-11-10T01:59:40.047Z,9.28
2022-11-10T02:02:21.563Z,9.24
2022-11-10T02:04:49.464Z,9.20
2022-11-10T02:07:15.987Z,9.13
2022-11-10T02:09:42.357Z,9.11
2022-11-10T02:12:08.647Z,9.13
2022-11-10T02:14:35.020Z,9.12
2022-11-10T02:17:01.561Z,9.10
2022-11-10T02:19:27.986Z,9.06
2022-11-10T02:21:54.278Z,9.01
2022-11-10T02:24:20.937Z,9.03
2022-11-10T02:26:53.808Z,9.04
2022-11-10T02:29:20.866Z,9.02
2022-11-10T02:31:47.212Z,9.02
2022-11-10T02:34:13.596Z,8.95
2022-11-10T02:36:39.952Z,8.95
2022-11-10T02:39:06.291Z,8.93
2022-11-10T02:41:32.599Z,8.89
2022-11-10T02:43:59.212Z,8.84
2022-11-10T02:46:25.545Z,8.88
2022-11-10T02:48:51.914Z,8.82
2022-11-10T02:51:18.308Z,8.82
2022-11-10T02:53:44.627Z,8.76
2022-11-10T02:56:10.991Z,8.80
2022-11-10T02:58:37.300Z,8.75
2022-11-10T03:01:05.799Z,8.73
2022-11-10T03:03:32.653Z,8.69
2022-11-10T03:05:59.135Z,8.61
2022-11-10T03:08:25.617Z,8.65
2022-11-10T03:10:56.473Z,8.63
2022-11-10T03:13:24.840Z,8.61
2022-11-10T03:15:52.096Z,8.60
2022-11-10T03:18:18.469Z,8.62
2022-11-10T03:20:47.809Z,8.55
2022-11-10T03:23:14.646Z,8.63
2022-11-10T03:25:41.291Z,8.57
2022-11-10T03:28:07.716Z,8.55
2022-11-10T03:30:34.137Z,8.52
2022-11-10T03:33:00.467Z,8.52
2022-11-10T03:35:27.041Z,8.48
2022-11-10T03:37:53.353Z,8.49
2022-11-10T03:40:19.709Z,8.47
2022-11-10T03:42:46.491Z,8.47
2022-11-10T03:45:14.184Z,8.46
2022-11-10T03:47:40.903Z,8.48
2022-11-10T03:50:07.545Z,8.50
2022-11-10T03:52:34.210Z,8.47
2022-11-10T03:55:03.265Z,8.48
2022-11-10T03:57:30.114Z,8.40
2022-11-10T03:59:56.438Z,8.39
2022-11-10T04:02:22.749Z,8.43
2022-11-10T04:05:07.687Z,8.37
2022-11-10T04:07:52.935Z,8.34
2022-11-10T04:10:19.283Z,8.38
2022-11-10T04:13:05.409Z,8.36
2022-11-10T04:15:43.699Z,8.38
2022-11-10T04:18:21.113Z,8.36
2022-11-10T04:20:48.243Z,8.32
2022-11-10T04:23:27.635Z,8.32
2022-11-10T04:26:18.153Z,8.34
2022-11-10T04:28:50.748Z,8.39
2022-11-10T04:31:19.499Z,8.35
2022-11-10T04:33:46.736Z,8.41
2022-11-10T04:36:16.478Z,8.39
2022-11-10T04:38:43.262Z,8.43
2022-11-10T04:41:10.127Z,8.46
2022-11-10T04:43:36.799Z,8.48
2022-11-10T04:46:04.492Z,8.49
2022-11-10T04:48:31.830Z,8.51
2022-11-10T04:51:02.499Z,8.54
2022-11-10T04:53:28.775Z,8.49
2022-11-10T04:55:55.084Z,8.52
2022-11-10T04:58:21.454Z,8.50
2022-11-10T05:00:47.877Z,8.50
2022-11-10T05:03:14.782Z,8.58
2022-11-10T05:05:41.424Z,8.65
2022-11-10T05:08:08.736Z,8.67
2022-11-10T05:10:36.831Z,8.73
2022-11-10T05:13:04.625Z,8.76
2022-11-10T05:15:32.736Z,8.74
2022-11-10T05:17:59.815Z,8.76
2022-11-10T05:20:26.627Z,8.71
2022-11-10T05:23:12.173Z,8.72
2022-11-10T05:25:41.337Z,8.75
2022-11-10T05:28:10.230Z,8.70
2022-11-10T05:30:37.380Z,8.71
2022-11-10T05:33:04.609Z,8.69
2022-11-10T05:35:31.802Z,8.74
2022-11-10T05:37:58.125Z,8.74
2022-11-10T05:40:24.839Z,8.72
2022-11-10T05:42:55.170Z,8.76
2022-11-10T05:45:23.473Z,8.76
2022-11-10T05:47:50.251Z,8.75
2022-11-10T05:50:17.668Z,8.80
2022-11-10T05:52:50.438Z,8.83
2022-11-10T05:55:19.157Z,8.81
2022-11-10T05:57:47.045Z,8.84
2022-11-10T06:00:15.543Z,8.91
2022-11-10T06:02:41.830Z,8.85
2022-11-10T06:05:08.676Z,8.80
2022-11-10T06:07:35.397Z,8.79
2022-11-10T06:10:01.837Z,8.80
2022-11-10T06:12:30.953Z,8.81
2022-11-10T06:15:00.348Z,8.82
2022-11-10T06:17:26.814Z,8.81
2022-11-10T06:19:53.098Z,8.75
2022-11-10T06:22:19.430Z,8.77
2022-11-10T06:24:46.591Z,8.75
2022-11-10T06:27:12.867Z,8.75
2022-11-10T06:29:39.158Z,8.76
2022-11-10T06:32:05.571Z,8.76
2022-11-10T06:34:31.850Z,8.76
2022-11-10T06:36:58.179Z,8.80
2022-11-10T06:39:24.445Z,8.80
2022-11-10T06:41:50.710Z,8.83
2022-11-10T06:44:16.976Z,8.80
2022-11-10T06:46:43.352Z,8.80
2022-11-10T06:49:09.714Z,8.75
2022-11-10T06:51:35.992Z,8.77
2022-11-10T06:54:02.278Z,8.80
2022-11-10T06:56:28.575Z,8.78
2022-11-10T06:58:54.884Z,8.78
2022-11-10T07:01:25.998Z,8.77
2022-11-10T07:04:18.243Z,8.80
2022-11-10T07:06:39.794Z,8.78
2022-11-10T07:09:06.266Z,8.70
2022-11-10T07:11:32.691Z,8.77
2022-11-10T07:13:58.964Z,8.71
2022-11-10T07:16:25.228Z,8.72
2022-11-10T07:18:51.497Z,8.75
2022-11-10T07:21:17.850Z,8.82
2022-11-10T07:23:44.221Z,8.79
2022-11-10T07:26:10.506Z,8.75
2022-11-10T07:28:36.861Z,8.73
2022-11-10T07:31:03.599Z,8.65
2022-11-10T07:33:29.971Z,8.63
2022-11-10T07:36:00.264Z,8.70
2022-11-10T07:38:26.585Z,8.65
2022-11-10T07:40:54.105Z,8.68
2022-11-10T07:43:21.907Z,8.72
2022-11-10T07:45:52.907Z,8.75
2022-11-10T07:48:20.855Z,8.81
2022-11-10T07:50:47.289Z,8.76
2022-11-10T07:53:16.854Z,8.83
2022-11-10T07:55:44.573Z,8.85
2022-11-10T07:58:13.754Z,8.84
2022-11-10T08:00:40.957Z,8.94
2022-11-10T08:03:09.523Z,9.01
2022-11-10T08:05:35.952Z,9.07
2022-11-10T08:08:02.927Z,9.14
2022-11-10T08:10:30.860Z,9.19
2022-11-10T08:13:02.069Z,9.23
2022-11-10T08:15:30.005Z,9.31
2022-11-10T08:18:07.212Z,9.38
2022-11-10T08:20:34.068Z,9.32
2022-11-10T08:23:03.488Z,9.32
2022-11-10T08:25:34.829Z,9.40
2022-11-10T08:28:20.668Z,9.45
2022-11-10T08:30:48.571Z,9.44
2022-11-10T08:33:17.991Z,9.50
2022-11-10T08:35:46.993Z,9.49
2022-11-10T08:38:15.917Z,9.48
2022-11-10T08:40:43.297Z,9.53
2022-11-10T08:43:10.146Z,9.59
2022-11-10T08:45:38.272Z,9.70
2022-11-10T08:48:07.867Z,9.70
2022-11-10T08:50:34.510Z,9.69
2022-11-10T08:53:02.692Z,9.77
2022-11-10T08:55:29.763Z,9.76
2022-11-10T08:58:01.266Z,9.79
2022-11-10T09:00:29.258Z,9.82
2022-11-10T09:02:56.684Z,9.84
2022-11-10T09:05:23.655Z,9.87
2022-11-10T09:07:50.475Z,9.91
2022-11-10T09:10:17.192Z,9.91
2022-11-10T09:12:43.705Z,9.95
2022-11-10T09:15:11.263Z,10.10
2022-11-10T09:17:39.213Z,10.12
2022-11-10T09:20:07.741Z,10.15
2022-11-10T09:22:35.928Z,10.16
2022-11-10T09:25:02.800Z,10.18
2022-11-10T09:27:29.191Z,10.30
2022-11-10T09:29:55.590Z,10.34
2022-11-10T09:32:21.951Z,10.26
2022-11-10T09:34:52.721Z,10.36
2022-11-10T09:37:19.486Z,10.47
2022-11-10T09:39:45.839Z,10.51
2022-11-10T09:42:41.718Z,10.60
2022-11-10T09:45:23.916Z,10.55
2022-11-10T09:48:22.520Z,10.47
2022-11-10T09:51:03.316Z,10.42
2022-11-10T09:54:02.699Z,10.54
2022-11-10T09:56:34.846Z,10.58
2022-11-10T09:59:06.568Z,10.59
2022-11-10T10:01:45.542Z,10.69
2022-11-10T10:04:33.105Z,10.79
2022-11-10T10:07:24.338Z,10.90
2022-11-10T10:10:01.612Z,11.01
2022-11-10T10:12:42.846Z,10.97
2022-11-10T10:15:25.658Z,10.95
2022-11-10T10:17:58.311Z,10.88
2022-11-10T10:21:08.217Z,10.90
2022-11-10T10:24:08.655Z,10.97
2022-11-10T10:26:38.022Z,10.99
2022-11-10T10:29:11.027Z,11.13
2022-11-10T10:31:43.192Z,11.21
2022-11-10T10:34:18.371Z,11.21
2022-11-10T10:36:45.448Z,11.28
2022-11-10T10:39:30.727Z,11.34
2022-11-10T10:41:57.965Z,11.38
2022-11-10T10:44:24.463Z,11.35
2022-11-10T10:46:56.515Z,11.40
2022-11-10T10:49:29.508Z,11.46
2022-11-10T10:52:18.090Z,11.48
2022-11-10T10:54:44.425Z,11.61
2022-11-10T10:57:25.184Z,11.65
2022-11-10T10:59:52.144Z,11.72
2022-11-10T11:02:28.185Z,11.74
2022-11-10T11:05:12.145Z,11.84
2022-11-10T11:07:38.479Z,11.73
2022-11-10T11:10:19.232Z,11.79
2022-11-10T11:12:45.636Z,11.85
2022-11-10T11:15:12.717Z,11.84
2022-11-10T11:17:40.047Z,11.82
2022-11-10T11:20:14.268Z,11.84
2022-11-10T11:22:59.240Z,11.93
2022-11-10T11:25:42.936Z,11.93
2022-11-10T11:28:39.018Z,11.92
2022-11-10T11:31:18.795Z,11.88
2022-11-10T11:34:22.786Z,11.86
2022-11-10T11:37:19.685Z,11.90
2022-11-10T11:40:10.235Z,11.94
2022-11-10T11:43:03.746Z,11.95
2022-11-10T11:45:55.394Z,11.99
2022-11-10T11:48:58.550Z,12.03
2022-11-10T11:51:52.805Z,12.01
2022-11-10T11:54:39.302Z,12.13
2022-11-10T11:57:20.968Z,12.11
2022-11-10T12:00:04.231Z,12.12
2022-11-10T12:02:39.896Z,12.18
2022-11-10T12:05:28.035Z,12.21
2022-11-10T12:08:14.117Z,12.30
2022-11-10T12:11:00.807Z,12.13
2022-11-10T12:13:40.413Z,12.19
2022-11-10T12:16:12.683Z,12.27
2022-11-10T12:18:57.346Z,12.21
2022-11-10T12:21:42.903Z,12.26
2022-11-10T12:24:12.277Z,12.40
2022-11-10T12:26:41.638Z,12.33
2022-11-10T12:29:10.953Z,12.42
2022-11-10T12:31:40.207Z,12.46
2022-11-10T12:34:26.750Z,12.37
2022-11-10T12:36:53.169Z,12.43
2022-11-10T12:39:38.008Z,12.53
2022-11-10T12:42:05.888Z,12.49
2022-11-10T12:44:39.412Z,12.46
2022-11-10T12:47:10.975Z,12.48
2022-11-10T12:49:41.403Z,12.44
2022-11-10T12:52:53.816Z,12.45
2022-11-10T12:55:34.774Z,12.35
2022-11-10T12:58:03.623Z,12.38
2022-11-10T13:00:32.762Z,12.32
2022-11-10T13:02:59.655Z,12.28
2022-11-10T13:05:26.072Z,12.31
2022-11-10T13:08:11.531Z,12.34
2022-11-10T13:10:52.685Z,12.24
2022-11-10T13:13:19.518Z,12.19
2022-11-10T13:15:49.673Z,12.15
2022-11-10T13:18:31.276Z,12.14
2022-11-10T13:20:59.138Z,12.15
2022-11-10T13:23:52.561Z,12.19
2022-11-10T13:26:40.653Z,12.16
2022-11-10T13:29:35.992Z,12.13
2022-11-10T13:32:08.346Z,12.14
2022-11-10T13:34:37.051Z,12.11
2022-11-10T13:37:29.471Z,12.17
2022-11-10T13:40:27.942Z,12.18
2022-11-10T13:42:57.337Z,12.19
2022-11-10T13:45:36.926Z,12.22
2022-11-10T13:48:12.025Z,12.13
2022-11-10T13:50:54.040Z,12.11
2022-11-10T13:53:29.459Z,12.08
2022-11-10T13:56:17.205Z,12.08
2022-11-10T13:58:44.767Z,12.06
2022-11-10T14:01:17.079Z,12.03
2022-11-10T14:03:46.576Z,12.06
2022-11-10T14:06:43.898Z,12.12
2022-11-10T14:09:13.078Z,12.15
2022-11-10T14:11:49.547Z,12.17
2022-11-10T14:14:29.080Z,12.15
2022-11-10T14:16:55.845Z,12.15
2022-11-10T14:19:44.905Z,12.11
2022-11-10T14:22:21.727Z,12.13
2022-11-10T14:25:18.980Z,12.21
2022-11-10T14:27:45.388Z,12.18
2022-11-10T14:30:14.849Z,12.23
2022-11-10T14:32:41.251Z,12.26
2022-11-10T14:35:18.395Z,12.28
2022-11-10T14:37:44.750Z,12.26
2022-11-10T14:40:18.009Z,12.25
2022-11-10T14:42:46.179Z,12.22
2022-11-10T14:45:21.932Z,12.25
2022-11-10T14:47:59.799Z,12.31
2022-11-10T14:50:32.589Z,12.39
2022-11-10T14:53:21.998Z,12.34
2022-11-10T14:55:54.692Z,12.28
2022-11-10T14:58:24.853Z,12.29
2022-11-10T15:00:52.191Z,12.27
2022-11-10T15:03:29.145Z,12.33
2022-11-10T15:05:55.467Z,12.32
2022-11-10T15:08:22.348Z,12.23
2022-11-10T15:10:52.854Z,12.25
2022-11-10T15:13:28.413Z,12.29
2022-11-10T15:16:26.972Z,12.26
2022-11-10T15:18:55.558Z,12.27
2022-11-10T15:21:28.352Z,12.25
2022-11-10T15:23:59.376Z,12.28
2022-11-10T15:26:28.323Z,12.28
2022-11-10T15:28:55.169Z,12.25
2022-11-10T15:31:26.454Z,12.28
2022-11-10T15:33:58.848Z,12.29
2022-11-10T15:36:25.097Z,12.29
2022-11-10T15:39:09.898Z,12.28
2022-11-10T15:41:37.585Z,12.23
2022-11-10T15:44:19.344Z,12.23
2022-11-10T15:46:46.606Z,12.22
2022-11-10T15:49:27.967Z,12.26
2022-11-10T15:52:00.191Z,12.30
2022-11-10T15:54:29.676Z,12.29
2022-11-10T15:56:55.978Z,12.30
2022-11-10T15:59:22.479Z,12.30
2022-11-10T16:01:50.958Z,12.29
2022-11-10T16:04:17.322Z,12.22
2022-11-10T16:06:43.868Z,12.25
2022-11-10T16:09:12.536Z,12.29
2022-11-10T16:11:42.357Z,12.30
2022-11-10T16:14:16.631Z,12.27
2022-11-10T16:16:43.707Z,12.29
2022-11-10T16:19:11.305Z,12.31
2022-11-10T16:21:37.818Z,12.29
2022-11-10T16:24:04.785Z,12.36
2022-11-10T16:26:34.289Z,12.39
2022-11-10T16:29:01.018Z,12.38
2022-11-10T16:31:27.650Z,12.39
2022-11-10T16:33:53.960Z,12.35
2022-11-10T16:36:26.186Z,12.36
2022-11-10T16:38:54.026Z,12.41
2022-11-10T16:41:20.962Z,12.42
2022-11-10T16:43:47.657Z,12.48
2022-11-10T16:46:25.482Z,12.48
2022-11-10T16:48:55.777Z,12.51
2022-11-10T16:51:29.156Z,12.48
2022-11-10T16:53:55.857Z,12.48
2022-11-10T16:56:22.973Z,12.47
2022-11-10T16:58:49.329Z,12.51
2022-11-10T17:01:26.130Z,12.53
2022-11-10T17:03:55.411Z,12.52
2022-11-10T17:06:24.368Z,12.52
2022-11-10T17:08:53.107Z,12.56
2022-11-10T17:11:19.500Z,12.54
2022-11-10T17:13:45.857Z,12.51
2022-11-10T17:16:27.359Z,12.54
2022-11-10T17:18:55.392Z,12.54
2022-11-10T17:21:22.517Z,12.63
2022-11-10T17:23:49.524Z,12.54
2022-11-10T17:26:18.475Z,12.58
2022-11-10T17:28:45.078Z,12.66
2022-11-10T17:31:13.530Z,12.61
2022-11-10T17:33:40.472Z,12.65
2022-11-10T17:36:14.212Z,12.66
2022-11-10T17:38:41.775Z,12.59
2022-11-10T17:41:14.602Z,12.67
2022-11-10T17:43:45.435Z,12.68
2022-11-10T17:46:13.247Z,12.67
2022-11-10T17:48:39.725Z,12.68
2022-11-10T17:51:11.722Z,12.66
2022-11-10T17:53:38.169Z,12.69
2022-11-10T17:56:04.892Z,12.68
2022-11-10T17:58:31.294Z,12.73
2022-11-10T18:00:57.590Z,12.72
2022-11-10T18:03:24.243Z,12.79
2022-11-10T18:05:50.837Z,12.82
2022-11-10T18:08:17.859Z,12.79
2022-11-10T18:10:52.035Z,12.72
2022-11-10T18:13:18.813Z,12.73
2022-11-10T18:15:46.700Z,12.72
2022-11-10T18:18:17.729Z,12.68
2022-11-10T18:20:44.580Z,12.75
2022-11-10T18:23:12.413Z,12.74
2022-11-10T18:25:40.106Z,12.76
2022-11-10T18:28:06.534Z,12.71
2022-11-10T18:30:35.210Z,12.63
2022-11-10T18:33:02.588Z,12.64
2022-11-10T18:35:29.349Z,12.67
2022-11-10T18:37:55.731Z,12.69
2022-11-10T18:40:22.050Z,12.68
2022-11-10T18:42:48.372Z,12.69
2022-11-10T18:45:14.704Z,12.64
2022-11-10T18:47:41.027Z,12.65
2022-11-10T18:50:08.198Z,12.62
2022-11-10T18:52:34.461Z,12.57
2022-11-10T18:55:00.746Z,12.57
2022-11-10T18:57:27.038Z,12.58
2022-11-10T18:59:53.593Z,12.56
2022-11-10T19:02:19.924Z,12.57
2022-11-10T19:04:49.678Z,12.58
2022-11-10T19:07:19.679Z,12.58
2022-11-10T19:09:45.963Z,12.62
2022-11-10T19:12:13.000Z,12.62
2022-11-10T19:14:40.858Z,12.64
2022-11-10T19:17:07.180Z,12.63
2022-11-10T19:19:33.485Z,12.60
2022-11-10T19:22:00.628Z,12.60
2022-11-10T19:24:28.345Z,12.63
2022-11-10T19:26:56.661Z,12.63
2022-11-10T19:29:22.945Z,12.62
2022-11-10T19:31:49.830Z,12.60
2022-11-10T19:34:18.687Z,12.58
2022-11-10T19:36:49.210Z,12.58
2022-11-10T19:39:15.558Z,12.58
2022-11-10T19:41:42.102Z,12.61
2022-11-10T19:44:08.411Z,12.59
2022-11-10T19:46:36.837Z,12.56
2022-11-10T19:49:04.121Z,12.54
2022-11-10T19:51:30.492Z,12.59
2022-11-10T19:54:01.999Z,12.58
2022-11-10T19:56:31.868Z,12.57
2022-11-10T19:58:59.276Z,12.52
2022-11-10T20:01:26.333Z,12.47
2022-11-10T20:03:52.879Z,12.49
2022-11-10T20:06:21.494Z,12.49
2022-11-10T20:08:48.770Z,12.53
2022-11-10T20:11:25.673Z,12.51
2022-11-10T20:13:55.544Z,12.54
2022-11-10T20:16:22.362Z,12.57
2022-11-10T20:18:48.671Z,12.56
2022-11-10T20:21:17.610Z,12.54
2022-11-10T20:23:44.258Z,12.50
2022-11-10T20:26:16.803Z,12.48
2022-11-10T20:28:44.279Z,12.50
2022-11-10T20:31:16.783Z,12.53
2022-11-10T20:33:43.230Z,12.61
2022-11-10T20:36:20.325Z,12.56
2022-11-10T20:38:48.559Z,12.63
2022-11-10T20:41:18.528Z,12.53
2022-11-10T20:43:44.893Z,12.53
2022-11-10T20:46:40.164Z,12.60
2022-11-10T20:49:03.685Z,12.54
2022-11-10T20:51:30.019Z,12.53
2022-11-10T20:53:56.903Z,12.54
2022-11-10T20:56:28.271Z,12.45
2022-11-10T20:58:56.386Z,12.46
2022-11-10T21:01:23.427Z,12.44
2022-11-10T21:03:49.932Z,12.42
2022-11-10T21:06:16.378Z,12.36
2022-11-10T21:08:42.836Z,12.39
2022-11-10T21:11:10.274Z,12.35
2022-11-10T21:13:37.213Z,12.30
2022-11-10T21:16:05.781Z,12.30
2022-11-10T21:18:35.090Z,12.28
2022-11-10T21:21:01.727Z,12.28
2022-11-10T21:23:28.382Z,12.27
2022-11-10T21:25:59.701Z,12.27
2022-11-10T21:28:26.657Z,12.32
2022-11-10T21:30:53.079Z,12.25
2022-11-10T21:33:19.575Z,12.28
2022-11-10T21:35:45.957Z,12.26
2022-11-10T21:38:13.218Z,12.26
2022-11-10T21:40:40.060Z,12.23
2022-11-10T21:43:06.357Z,12.23
2022-11-10T21:45:32.637Z,12.18
2022-11-10T21:48:02.935Z,12.19
2022-11-10T21:50:29.653Z,12.18
2022-11-10T21:52:55.949Z,12.19
2022-11-10T21:55:22.256Z,12.18
2022-11-10T21:57:48.563Z,12.14
2022-11-10T22:00:15.020Z,12.10
2022-11-10T22:02:41.348Z,12.05
2022-11-10T22:05:08.074Z,12.03
2022-11-10T22:07:34.369Z,12.01
2022-11-10T22:10:19.054Z,12.02
2022-11-10T22:13:03.948Z,12.05
2022-11-10T22:15:48.960Z,12.00
2022-11-10T22:18:36.253Z,11.99
2022-11-10T22:21:06.020Z,11.99
2022-11-10T22:23:51.364Z,11.97
2022-11-10T22:26:18.397Z,11.95
2022-11-10T22:28:45.610Z,11.93
2022-11-10T22:31:12.419Z,11.91
2022-11-10T22:33:40.558Z,11.90
2022-11-10T22:36:10.580Z,11.92
2022-11-10T22:38:39.074Z,11.90
2022-11-10T22:41:24.648Z,11.97
2022-11-10T22:44:06.304Z,11.93
2022-11-10T22:46:34.427Z,11.86
2022-11-10T22:49:02.085Z,11.82
2022-11-10T22:51:30.087Z,11.76
2022-11-10T22:53:56.492Z,11.75
2022-11-10T22:56:22.814Z,11.69
2022-11-10T22:58:49.400Z,11.61
2022-11-10T23:01:15.773Z,11.61
2022-11-10T23:03:42.302Z,11.61
2022-11-10T23:06:09.408Z,11.57
2022-11-10T23:08:36.060Z,11.54
2022-11-10T23:11:06.137Z,11.58
2022-11-10T23:13:34.663Z,11.50
2022-11-10T23:16:09.994Z,11.49
2022-11-10T23:18:38.133Z,11.47
2022-11-10T23:21:07.528Z,11.48
2022-11-10T23:23:55.915Z,11.43
2022-11-10T23:26:29.985Z,11.44
2022-11-10T23:28:56.393Z,11.44
2022-11-10T23:31:25.005Z,11.42
2022-11-10T23:33:53.470Z,11.32
2022-11-10T23:36:21.595Z,11.26
2022-11-10T23:38:50.792Z,11.26
2022-11-10T23:41:23.537Z,11.32
2022-11-10T23:43:50.012Z,11.27
2022-11-10T23:46:16.375Z,11.16
2022-11-10T23:48:42.775Z,11.13
2022-11-10T23:51:11.543Z,11.12
2022-11-10T23:53:38.188Z,11.13
2022-11-10T23:56:07.186Z,11.07
2022-11-10T23:58:33.498Z,11.13
